sensor_id;sensor_type;location;lat;lon;timestamp;temperature;humidity
38458;DHT22;24239;48.058;10.486;2023-05-07T00:01:53;11.20;99.90
38458;DHT22;24239;48.058;10.486;2023-05-07T00:04:19;11.20;99.90
38458;DHT22;24239;48.058;10.486;2023-05-07T00:06:46;11.20;99.90
38458;DHT22;24239;48.058;10.486;2023-05-07T00:09:11;11.20;99.90
38458;DHT22;24239;48.058;10.486;2023-05-07T00:11:37;11.20;99.90
38458;DHT22;24239;48.058;10.486;2023-05-07T00:14:03;11.20;99.90
38458;DHT22;24239;48.058;10.486;2023-05-07T00:16:29;11.20;99.90
38458;DHT22;24239;48.058;10.486;2023-05-07T00:18:55;11.20;99.90
38458;DHT22;24239;48.058;10.486;2023-05-07T00:21:20;11.20;99.90
38458;DHT22;24239;48.058;10.486;2023-05-07T00:23:46;11.20;99.90
38458;DHT22;24239;48.058;10.486;2023-05-07T00:26:12;11.20;99.90
38458;DHT22;24239;48.058;10.486;2023-05-07T00:28:38;11.20;99.90
38458;DHT22;24239;48.058;10.486;2023-05-07T00:31:03;11.20;99.90
38458;DHT22;24239;48.058;10.486;2023-05-07T00:33:29;11.20;99.90
38458;DHT22;24239;48.058;10.486;2023-05-07T00:35:55;11.10;99.90
38458;DHT22;24239;48.058;10.486;2023-05-07T00:38:20;11.10;99.90
38458;DHT22;24239;48.058;10.486;2023-05-07T00:40:46;11.10;99.90
38458;DHT22;24239;48.058;10.486;2023-05-07T00:43:12;11.10;99.90
38458;DHT22;24239;48.058;10.486;2023-05-07T00:45:38;11.10;99.90
38458;DHT22;24239;48.058;10.486;2023-05-07T00:48:04;11.10;99.90
38458;DHT22;24239;48.058;10.486;2023-05-07T00:50:32;11.10;99.90
38458;DHT22;24239;48.058;10.486;2023-05-07T00:52:58;11.00;99.90
38458;DHT22;24239;48.058;10.486;2023-05-07T00:55:24;11.00;99.90
38458;DHT22;24239;48.058;10.486;2023-05-07T00:57:50;11.00;99.90
38458;DHT22;24239;48.058;10.486;2023-05-07T01:00:16;10.90;99.90
38458;DHT22;24239;48.058;10.486;2023-05-07T01:02:42;10.90;99.90
38458;DHT22;24239;48.058;10.486;2023-05-07T01:05:09;10.90;99.90
38458;DHT22;24239;48.058;10.486;2023-05-07T01:07:34;10.90;99.90
38458;DHT22;24239;48.058;10.486;2023-05-07T01:10:01;10.80;99.90
38458;DHT22;24239;48.058;10.486;2023-05-07T01:12:28;10.80;99.90
38458;DHT22;24239;48.058;10.486;2023-05-07T01:14:53;10.80;99.90
38458;DHT22;24239;48.058;10.486;2023-05-07T01:17:19;10.70;99.90
38458;DHT22;24239;48.058;10.486;2023-05-07T01:19:45;10.70;99.90
38458;DHT22;24239;48.058;10.486;2023-05-07T01:22:11;10.70;99.90
38458;DHT22;24239;48.058;10.486;2023-05-07T01:24:38;10.60;99.90
38458;DHT22;24239;48.058;10.486;2023-05-07T01:27:03;10.60;99.90
38458;DHT22;24239;48.058;10.486;2023-05-07T01:29:29;10.70;99.90
38458;DHT22;24239;48.058;10.486;2023-05-07T01:31:59;10.60;99.90
38458;DHT22;24239;48.058;10.486;2023-05-07T01:34:25;10.60;99.90
38458;DHT22;24239;48.058;10.486;2023-05-07T01:36:52;10.70;99.90
38458;DHT22;24239;48.058;10.486;2023-05-07T01:39:18;10.70;99.90
38458;DHT22;24239;48.058;10.486;2023-05-07T01:41:44;10.60;99.90
38458;DHT22;24239;48.058;10.486;2023-05-07T01:44:10;10.50;99.90
38458;DHT22;24239;48.058;10.486;2023-05-07T01:46:37;10.70;99.90
38458;DHT22;24239;48.058;10.486;2023-05-07T01:49:03;10.70;99.90
38458;DHT22;24239;48.058;10.486;2023-05-07T01:51:29;10.60;99.90
38458;DHT22;24239;48.058;10.486;2023-05-07T01:53:55;10.60;99.90
38458;DHT22;24239;48.058;10.486;2023-05-07T01:56:20;10.60;99.90
38458;DHT22;24239;48.058;10.486;2023-05-07T01:58:46;10.50;99.90
38458;DHT22;24239;48.058;10.486;2023-05-07T02:01:13;10.50;99.90
38458;DHT22;24239;48.058;10.486;2023-05-07T02:03:39;10.60;99.90
38458;DHT22;24239;48.058;10.486;2023-05-07T02:06:05;10.60;99.90
38458;DHT22;24239;48.058;10.486;2023-05-07T02:08:31;10.60;99.90
38458;DHT22;24239;48.058;10.486;2023-05-07T02:10:56;10.50;99.90
38458;DHT22;24239;48.058;10.486;2023-05-07T02:13:22;10.50;99.90
38458;DHT22;24239;48.058;10.486;2023-05-07T02:15:49;10.50;99.90
38458;DHT22;24239;48.058;10.486;2023-05-07T02:18:16;10.50;99.90
38458;DHT22;24239;48.058;10.486;2023-05-07T02:20:42;10.40;99.90
38458;DHT22;24239;48.058;10.486;2023-05-07T02:23:07;10.40;99.90
38458;DHT22;24239;48.058;10.486;2023-05-07T02:25:33;10.40;99.90
38458;DHT22;24239;48.058;10.486;2023-05-07T02:27:59;10.40;99.90
38458;DHT22;24239;48.058;10.486;2023-05-07T02:30:24;10.30;99.90
38458;DHT22;24239;48.058;10.486;2023-05-07T02:32:50;10.30;99.90
38458;DHT22;24239;48.058;10.486;2023-05-07T02:35:16;10.30;99.90
38458;DHT22;24239;48.058;10.486;2023-05-07T02:37:42;10.30;99.90
38458;DHT22;24239;48.058;10.486;2023-05-07T02:40:08;10.40;99.90
38458;DHT22;24239;48.058;10.486;2023-05-07T02:42:36;10.40;99.90
38458;DHT22;24239;48.058;10.486;2023-05-07T02:45:02;10.40;99.90
38458;DHT22;24239;48.058;10.486;2023-05-07T02:47:30;10.30;99.90
38458;DHT22;24239;48.058;10.486;2023-05-07T02:49:55;10.30;99.90
38458;DHT22;24239;48.058;10.486;2023-05-07T02:52:21;10.30;99.90
38458;DHT22;24239;48.058;10.486;2023-05-07T02:54:47;10.20;99.90
38458;DHT22;24239;48.058;10.486;2023-05-07T02:57:12;10.20;99.90
38458;DHT22;24239;48.058;10.486;2023-05-07T02:59:41;10.10;99.90
38458;DHT22;24239;48.058;10.486;2023-05-07T03:02:07;10.10;99.90
38458;DHT22;24239;48.058;10.486;2023-05-07T03:04:33;10.00;99.90
38458;DHT22;24239;48.058;10.486;2023-05-07T03:06:58;10.00;99.90
38458;DHT22;24239;48.058;10.486;2023-05-07T03:09:27;10.00;99.90
38458;DHT22;24239;48.058;10.486;2023-05-07T03:11:53;9.90;99.90
38458;DHT22;24239;48.058;10.486;2023-05-07T03:14:18;9.90;99.90
38458;DHT22;24239;48.058;10.486;2023-05-07T03:16:51;9.90;99.90
38458;DHT22;24239;48.058;10.486;2023-05-07T03:19:17;10.00;99.90
38458;DHT22;24239;48.058;10.486;2023-05-07T03:21:43;9.90;99.90
38458;DHT22;24239;48.058;10.486;2023-05-07T03:24:08;9.90;99.90
38458;DHT22;24239;48.058;10.486;2023-05-07T03:26:37;9.80;99.90
38458;DHT22;24239;48.058;10.486;2023-05-07T03:29:03;9.80;99.90
38458;DHT22;24239;48.058;10.486;2023-05-07T03:31:31;9.70;99.90
38458;DHT22;24239;48.058;10.486;2023-05-07T03:33:57;9.70;99.90
38458;DHT22;24239;48.058;10.486;2023-05-07T03:36:23;9.60;99.90
38458;DHT22;24239;48.058;10.486;2023-05-07T03:38:49;9.60;99.90
38458;DHT22;24239;48.058;10.486;2023-05-07T03:41:15;9.50;99.90
38458;DHT22;24239;48.058;10.486;2023-05-07T03:43:41;9.50;99.90
38458;DHT22;24239;48.058;10.486;2023-05-07T03:46:10;9.40;99.90
38458;DHT22;24239;48.058;10.486;2023-05-07T03:48:35;9.40;99.90
38458;DHT22;24239;48.058;10.486;2023-05-07T03:51:01;9.40;99.90
38458;DHT22;24239;48.058;10.486;2023-05-07T03:53:29;9.40;99.90
38458;DHT22;24239;48.058;10.486;2023-05-07T03:55:55;9.40;99.90
38458;DHT22;24239;48.058;10.486;2023-05-07T03:58:21;9.30;99.90
38458;DHT22;24239;48.058;10.486;2023-05-07T04:00:46;9.30;99.90
38458;DHT22;24239;48.058;10.486;2023-05-07T04:03:12;9.30;99.90
38458;DHT22;24239;48.058;10.486;2023-05-07T04:05:38;9.30;99.90
38458;DHT22;24239;48.058;10.486;2023-05-07T04:08:03;9.30;99.90
38458;DHT22;24239;48.058;10.486;2023-05-07T04:10:31;9.40;99.90
38458;DHT22;24239;48.058;10.486;2023-05-07T04:12:57;9.40;99.90
38458;DHT22;24239;48.058;10.486;2023-05-07T04:15:23;9.40;99.90
38458;DHT22;24239;48.058;10.486;2023-05-07T04:17:48;9.40;99.90
38458;DHT22;24239;48.058;10.486;2023-05-07T04:20:15;9.50;99.90
38458;DHT22;24239;48.058;10.486;2023-05-07T04:22:41;9.50;99.90
38458;DHT22;24239;48.058;10.486;2023-05-07T04:25:08;9.60;99.90
38458;DHT22;24239;48.058;10.486;2023-05-07T04:27:34;9.60;99.90
38458;DHT22;24239;48.058;10.486;2023-05-07T04:30:03;9.90;99.90
38458;DHT22;24239;48.058;10.486;2023-05-07T04:32:29;9.90;99.90
38458;DHT22;24239;48.058;10.486;2023-05-07T04:34:57;10.00;99.90
38458;DHT22;24239;48.058;10.486;2023-05-07T04:37:23;10.30;99.90
38458;DHT22;24239;48.058;10.486;2023-05-07T04:39:49;10.50;99.90
38458;DHT22;24239;48.058;10.486;2023-05-07T04:42:15;10.80;99.90
38458;DHT22;24239;48.058;10.486;2023-05-07T04:44:43;11.00;99.90
38458;DHT22;24239;48.058;10.486;2023-05-07T04:47:09;11.40;99.90
38458;DHT22;24239;48.058;10.486;2023-05-07T04:49:35;11.70;99.90
38458;DHT22;24239;48.058;10.486;2023-05-07T04:52:01;12.10;99.90
38458;DHT22;24239;48.058;10.486;2023-05-07T04:54:26;12.50;99.90
38458;DHT22;24239;48.058;10.486;2023-05-07T04:56:52;12.90;99.90
38458;DHT22;24239;48.058;10.486;2023-05-07T04:59:18;13.50;99.90
38458;DHT22;24239;48.058;10.486;2023-05-07T05:01:46;14.00;99.90
38458;DHT22;24239;48.058;10.486;2023-05-07T05:04:17;14.30;99.90
38458;DHT22;24239;48.058;10.486;2023-05-07T05:06:42;14.80;99.90
38458;DHT22;24239;48.058;10.486;2023-05-07T05:09:17;15.10;99.90
38458;DHT22;24239;48.058;10.486;2023-05-07T05:11:43;15.80;99.90
38458;DHT22;24239;48.058;10.486;2023-05-07T05:14:08;16.30;99.90
38458;DHT22;24239;48.058;10.486;2023-05-07T05:16:36;16.60;99.90
38458;DHT22;24239;48.058;10.486;2023-05-07T05:19:02;16.80;99.90
38458;DHT22;24239;48.058;10.486;2023-05-07T05:21:31;17.10;99.90
38458;DHT22;24239;48.058;10.486;2023-05-07T05:23:56;17.30;99.90
38458;DHT22;24239;48.058;10.486;2023-05-07T05:26:27;17.10;99.90
38458;DHT22;24239;48.058;10.486;2023-05-07T05:28:53;16.70;99.90
38458;DHT22;24239;48.058;10.486;2023-05-07T05:31:19;16.00;99.90
38458;DHT22;24239;48.058;10.486;2023-05-07T05:33:44;15.80;99.90
38458;DHT22;24239;48.058;10.486;2023-05-07T05:36:10;16.30;99.90
38458;DHT22;24239;48.058;10.486;2023-05-07T05:38:37;16.80;99.90
38458;DHT22;24239;48.058;10.486;2023-05-07T05:41:02;17.20;99.90
38458;DHT22;24239;48.058;10.486;2023-05-07T05:43:28;18.00;99.90
38458;DHT22;24239;48.058;10.486;2023-05-07T05:46:04;18.40;99.90
38458;DHT22;24239;48.058;10.486;2023-05-07T05:48:30;18.80;99.90
38458;DHT22;24239;48.058;10.486;2023-05-07T05:50:56;19.40;99.90
38458;DHT22;24239;48.058;10.486;2023-05-07T05:53:21;19.30;99.90
38458;DHT22;24239;48.058;10.486;2023-05-07T05:58:50;19.60;99.90
38458;DHT22;24239;48.058;10.486;2023-05-07T06:01:18;19.30;99.90
38458;DHT22;24239;48.058;10.486;2023-05-07T06:03:44;19.00;99.90
38458;DHT22;24239;48.058;10.486;2023-05-07T06:06:10;18.50;99.90
38458;DHT22;24239;48.058;10.486;2023-05-07T06:08:36;17.70;99.90
38458;DHT22;24239;48.058;10.486;2023-05-07T06:11:02;17.30;99.90
38458;DHT22;24239;48.058;10.486;2023-05-07T06:13:28;16.80;99.90
38458;DHT22;24239;48.058;10.486;2023-05-07T06:15:54;16.50;99.90
38458;DHT22;24239;48.058;10.486;2023-05-07T06:18:19;16.30;99.90
38458;DHT22;24239;48.058;10.486;2023-05-07T06:20:45;16.10;99.90
38458;DHT22;24239;48.058;10.486;2023-05-07T06:23:11;15.80;99.90
38458;DHT22;24239;48.058;10.486;2023-05-07T06:25:37;15.90;99.90
38458;DHT22;24239;48.058;10.486;2023-05-07T06:28:02;16.00;99.90
38458;DHT22;24239;48.058;10.486;2023-05-07T06:30:28;15.80;99.90
38458;DHT22;24239;48.058;10.486;2023-05-07T06:32:53;15.80;99.90
38458;DHT22;24239;48.058;10.486;2023-05-07T06:35:19;15.70;99.90
38458;DHT22;24239;48.058;10.486;2023-05-07T06:37:45;15.80;99.90
38458;DHT22;24239;48.058;10.486;2023-05-07T06:40:11;15.80;99.90
38458;DHT22;24239;48.058;10.486;2023-05-07T06:42:36;15.80;99.90
38458;DHT22;24239;48.058;10.486;2023-05-07T06:45:03;15.80;99.90
38458;DHT22;24239;48.058;10.486;2023-05-07T06:47:29;15.80;99.90
38458;DHT22;24239;48.058;10.486;2023-05-07T06:49:55;15.80;99.90
38458;DHT22;24239;48.058;10.486;2023-05-07T06:52:20;16.00;99.90
38458;DHT22;24239;48.058;10.486;2023-05-07T06:54:46;16.20;99.90
38458;DHT22;24239;48.058;10.486;2023-05-07T06:57:12;16.30;99.90
38458;DHT22;24239;48.058;10.486;2023-05-07T06:59:37;16.30;99.90
38458;DHT22;24239;48.058;10.486;2023-05-07T07:02:12;16.50;99.90
38458;DHT22;24239;48.058;10.486;2023-05-07T07:04:38;16.60;99.90
38458;DHT22;24239;48.058;10.486;2023-05-07T07:07:03;16.50;99.90
38458;DHT22;24239;48.058;10.486;2023-05-07T07:09:29;16.60;99.90
38458;DHT22;24239;48.058;10.486;2023-05-07T07:11:55;16.60;99.90
38458;DHT22;24239;48.058;10.486;2023-05-07T07:14:21;16.80;99.90
38458;DHT22;24239;48.058;10.486;2023-05-07T07:16:46;17.00;99.90
38458;DHT22;24239;48.058;10.486;2023-05-07T07:19:12;17.20;99.90
38458;DHT22;24239;48.058;10.486;2023-05-07T07:21:37;17.30;99.90
38458;DHT22;24239;48.058;10.486;2023-05-07T07:24:03;17.40;99.90
38458;DHT22;24239;48.058;10.486;2023-05-07T07:26:29;17.50;99.90
38458;DHT22;24239;48.058;10.486;2023-05-07T07:28:55;17.60;99.90
38458;DHT22;24239;48.058;10.486;2023-05-07T07:31:20;17.60;99.90
38458;DHT22;24239;48.058;10.486;2023-05-07T07:33:46;17.50;99.90
38458;DHT22;24239;48.058;10.486;2023-05-07T07:36:12;17.60;99.90
38458;DHT22;24239;48.058;10.486;2023-05-07T07:38:39;17.80;99.90
38458;DHT22;24239;48.058;10.486;2023-05-07T07:41:07;17.90;99.90
38458;DHT22;24239;48.058;10.486;2023-05-07T07:43:33;17.80;99.90
38458;DHT22;24239;48.058;10.486;2023-05-07T07:45:58;17.90;99.90
38458;DHT22;24239;48.058;10.486;2023-05-07T07:48:24;18.20;99.90
38458;DHT22;24239;48.058;10.486;2023-05-07T07:50:50;18.30;99.90
38458;DHT22;24239;48.058;10.486;2023-05-07T07:53:21;18.20;99.90
38458;DHT22;24239;48.058;10.486;2023-05-07T07:55:47;18.30;99.90
38458;DHT22;24239;48.058;10.486;2023-05-07T07:58:13;18.40;99.90
38458;DHT22;24239;48.058;10.486;2023-05-07T08:00:38;18.50;99.90
38458;DHT22;24239;48.058;10.486;2023-05-07T08:03:04;18.50;99.90
38458;DHT22;24239;48.058;10.486;2023-05-07T08:05:30;18.50;99.90
38458;DHT22;24239;48.058;10.486;2023-05-07T08:07:56;18.70;99.90
38458;DHT22;24239;48.058;10.486;2023-05-07T08:10:25;18.80;99.90
38458;DHT22;24239;48.058;10.486;2023-05-07T08:12:50;18.70;99.90
38458;DHT22;24239;48.058;10.486;2023-05-07T08:15:16;18.80;99.90
38458;DHT22;24239;48.058;10.486;2023-05-07T08:17:42;18.90;99.90
38458;DHT22;24239;48.058;10.486;2023-05-07T08:20:08;19.00;99.90
38458;DHT22;24239;48.058;10.486;2023-05-07T08:22:34;19.20;99.90
38458;DHT22;24239;48.058;10.486;2023-05-07T08:25:00;19.40;99.90
38458;DHT22;24239;48.058;10.486;2023-05-07T08:27:26;19.50;99.90
38458;DHT22;24239;48.058;10.486;2023-05-07T08:29:52;19.60;99.90
38458;DHT22;24239;48.058;10.486;2023-05-07T08:32:18;19.80;99.90
38458;DHT22;24239;48.058;10.486;2023-05-07T08:34:47;19.90;99.90
38458;DHT22;24239;48.058;10.486;2023-05-07T08:37:12;19.80;99.90
38458;DHT22;24239;48.058;10.486;2023-05-07T08:39:38;20.00;99.90
38458;DHT22;24239;48.058;10.486;2023-05-07T08:42:04;20.10;99.90
38458;DHT22;24239;48.058;10.486;2023-05-07T08:44:33;20.20;99.90
38458;DHT22;24239;48.058;10.486;2023-05-07T08:46:59;20.30;99.90
38458;DHT22;24239;48.058;10.486;2023-05-07T08:49:26;20.30;99.90
38458;DHT22;24239;48.058;10.486;2023-05-07T08:51:52;20.40;99.90
38458;DHT22;24239;48.058;10.486;2023-05-07T08:54:18;20.30;99.90
38458;DHT22;24239;48.058;10.486;2023-05-07T08:56:45;20.20;99.90
38458;DHT22;24239;48.058;10.486;2023-05-07T08:59:10;20.30;99.90
38458;DHT22;24239;48.058;10.486;2023-05-07T09:01:36;20.40;99.90
38458;DHT22;24239;48.058;10.486;2023-05-07T09:04:02;20.50;99.90
38458;DHT22;24239;48.058;10.486;2023-05-07T09:06:27;20.70;99.90
38458;DHT22;24239;48.058;10.486;2023-05-07T09:08:54;20.80;99.90
38458;DHT22;24239;48.058;10.486;2023-05-07T09:11:20;20.70;99.90
38458;DHT22;24239;48.058;10.486;2023-05-07T09:13:46;20.80;99.90
38458;DHT22;24239;48.058;10.486;2023-05-07T09:16:12;21.00;99.90
38458;DHT22;24239;48.058;10.486;2023-05-07T09:18:44;21.00;99.90
38458;DHT22;24239;48.058;10.486;2023-05-07T09:21:10;20.90;99.90
38458;DHT22;24239;48.058;10.486;2023-05-07T09:23:36;20.80;99.90
38458;DHT22;24239;48.058;10.486;2023-05-07T09:26:02;20.90;99.90
38458;DHT22;24239;48.058;10.486;2023-05-07T09:28:29;21.00;99.90
38458;DHT22;24239;48.058;10.486;2023-05-07T09:30:57;21.10;99.90
38458;DHT22;24239;48.058;10.486;2023-05-07T09:33:26;21.30;99.90
38458;DHT22;24239;48.058;10.486;2023-05-07T09:35:51;21.50;99.90
38458;DHT22;24239;48.058;10.486;2023-05-07T09:38:17;21.50;99.90
38458;DHT22;24239;48.058;10.486;2023-05-07T09:40:45;21.40;99.90
38458;DHT22;24239;48.058;10.486;2023-05-07T09:43:10;21.30;99.90
38458;DHT22;24239;48.058;10.486;2023-05-07T09:45:37;21.30;99.90
38458;DHT22;24239;48.058;10.486;2023-05-07T09:48:06;21.30;99.90
38458;DHT22;24239;48.058;10.486;2023-05-07T09:50:35;21.40;99.90
38458;DHT22;24239;48.058;10.486;2023-05-07T09:53:01;21.50;99.90
38458;DHT22;24239;48.058;10.486;2023-05-07T09:55:28;21.80;99.90
38458;DHT22;24239;48.058;10.486;2023-05-07T09:57:54;21.90;99.90
38458;DHT22;24239;48.058;10.486;2023-05-07T10:00:21;21.90;99.90
38458;DHT22;24239;48.058;10.486;2023-05-07T10:02:48;21.70;99.90
38458;DHT22;24239;48.058;10.486;2023-05-07T10:05:14;21.70;99.90
38458;DHT22;24239;48.058;10.486;2023-05-07T10:07:40;21.70;99.90
38458;DHT22;24239;48.058;10.486;2023-05-07T10:10:06;21.70;99.90
38458;DHT22;24239;48.058;10.486;2023-05-07T10:12:32;21.90;99.90
38458;DHT22;24239;48.058;10.486;2023-05-07T10:15:03;21.90;99.90
38458;DHT22;24239;48.058;10.486;2023-05-07T10:17:29;21.80;99.90
38458;DHT22;24239;48.058;10.486;2023-05-07T10:19:55;21.80;99.90
38458;DHT22;24239;48.058;10.486;2023-05-07T10:22:20;21.80;99.90
38458;DHT22;24239;48.058;10.486;2023-05-07T10:24:47;21.30;99.90
38458;DHT22;24239;48.058;10.486;2023-05-07T10:27:14;21.30;99.90
38458;DHT22;24239;48.058;10.486;2023-05-07T10:29:45;21.10;99.90
38458;DHT22;24239;48.058;10.486;2023-05-07T10:35:00;21.10;99.90
38458;DHT22;24239;48.058;10.486;2023-05-07T10:37:26;21.10;99.90
38458;DHT22;24239;48.058;10.486;2023-05-07T10:39:52;21.10;99.90
38458;DHT22;24239;48.058;10.486;2023-05-07T10:42:18;21.00;99.90
38458;DHT22;24239;48.058;10.486;2023-05-07T10:44:44;20.90;99.90
38458;DHT22;24239;48.058;10.486;2023-05-07T10:47:10;21.00;99.90
38458;DHT22;24239;48.058;10.486;2023-05-07T10:49:37;21.00;99.90
38458;DHT22;24239;48.058;10.486;2023-05-07T10:52:22;21.20;99.90
38458;DHT22;24239;48.058;10.486;2023-05-07T10:57:42;21.30;99.90
38458;DHT22;24239;48.058;10.486;2023-05-07T11:03:04;21.40;99.90
38458;DHT22;24239;48.058;10.486;2023-05-07T11:05:31;21.40;99.90
38458;DHT22;24239;48.058;10.486;2023-05-07T11:07:57;21.30;99.90
38458;DHT22;24239;48.058;10.486;2023-05-07T11:10:39;21.40;99.90
38458;DHT22;24239;48.058;10.486;2023-05-07T11:13:18;21.40;99.90
38458;DHT22;24239;48.058;10.486;2023-05-07T11:16:04;21.40;99.90
38458;DHT22;24239;48.058;10.486;2023-05-07T11:18:48;21.30;99.90
38458;DHT22;24239;48.058;10.486;2023-05-07T11:21:31;21.40;99.90
38458;DHT22;24239;48.058;10.486;2023-05-07T11:23:58;21.50;99.90
38458;DHT22;24239;48.058;10.486;2023-05-07T11:26:27;21.60;99.90
38458;DHT22;24239;48.058;10.486;2023-05-07T11:29:04;21.80;99.90
38458;DHT22;24239;48.058;10.486;2023-05-07T11:31:35;21.90;99.90
38458;DHT22;24239;48.058;10.486;2023-05-07T11:34:01;21.70;99.90
38458;DHT22;24239;48.058;10.486;2023-05-07T11:36:32;21.70;99.90
38458;DHT22;24239;48.058;10.486;2023-05-07T11:39:12;21.80;99.90
38458;DHT22;24239;48.058;10.486;2023-05-07T11:41:48;21.80;99.90
38458;DHT22;24239;48.058;10.486;2023-05-07T11:44:13;21.80;99.90
38458;DHT22;24239;48.058;10.486;2023-05-07T11:46:42;22.00;99.90
38458;DHT22;24239;48.058;10.486;2023-05-07T11:49:13;22.00;99.90
38458;DHT22;24239;48.058;10.486;2023-05-07T11:51:39;22.10;99.90
38458;DHT22;24239;48.058;10.486;2023-05-07T11:54:06;21.90;99.90
38458;DHT22;24239;48.058;10.486;2023-05-07T11:56:37;21.80;99.90
38458;DHT22;24239;48.058;10.486;2023-05-07T11:59:02;21.80;99.90
38458;DHT22;24239;48.058;10.486;2023-05-07T12:01:28;21.90;99.90
38458;DHT22;24239;48.058;10.486;2023-05-07T12:03:54;21.80;99.90
38458;DHT22;24239;48.058;10.486;2023-05-07T12:06:22;21.80;99.90
38458;DHT22;24239;48.058;10.486;2023-05-07T12:08:52;21.60;99.90
38458;DHT22;24239;48.058;10.486;2023-05-07T12:11:33;21.50;99.90
38458;DHT22;24239;48.058;10.486;2023-05-07T12:13:59;21.30;99.90
38458;DHT22;24239;48.058;10.486;2023-05-07T12:16:25;21.20;99.90
38458;DHT22;24239;48.058;10.486;2023-05-07T12:18:51;21.30;99.90
38458;DHT22;24239;48.058;10.486;2023-05-07T12:21:18;21.30;99.90
38458;DHT22;24239;48.058;10.486;2023-05-07T12:23:43;21.50;99.90
38458;DHT22;24239;48.058;10.486;2023-05-07T12:26:09;21.40;99.90
38458;DHT22;24239;48.058;10.486;2023-05-07T12:28:38;21.30;99.90
38458;DHT22;24239;48.058;10.486;2023-05-07T12:31:04;21.40;99.90
38458;DHT22;24239;48.058;10.486;2023-05-07T12:33:30;21.40;99.90
38458;DHT22;24239;48.058;10.486;2023-05-07T12:35:57;21.50;99.90
38458;DHT22;24239;48.058;10.486;2023-05-07T12:38:23;21.50;99.90
38458;DHT22;24239;48.058;10.486;2023-05-07T12:40:50;21.50;99.90
38458;DHT22;24239;48.058;10.486;2023-05-07T12:43:19;21.60;99.90
38458;DHT22;24239;48.058;10.486;2023-05-07T12:45:49;21.90;99.90
38458;DHT22;24239;48.058;10.486;2023-05-07T12:48:14;21.80;99.90
38458;DHT22;24239;48.058;10.486;2023-05-07T12:50:40;21.90;99.90
38458;DHT22;24239;48.058;10.486;2023-05-07T12:53:09;21.90;99.90
38458;DHT22;24239;48.058;10.486;2023-05-07T12:55:45;22.00;99.90
38458;DHT22;24239;48.058;10.486;2023-05-07T12:58:30;22.00;99.90
38458;DHT22;24239;48.058;10.486;2023-05-07T13:01:00;22.40;99.90
38458;DHT22;24239;48.058;10.486;2023-05-07T13:03:34;22.40;99.90
38458;DHT22;24239;48.058;10.486;2023-05-07T13:06:01;22.20;99.80
38458;DHT22;24239;48.058;10.486;2023-05-07T13:08:48;22.30;99.90
38458;DHT22;24239;48.058;10.486;2023-05-07T13:11:28;22.30;99.80
38458;DHT22;24239;48.058;10.486;2023-05-07T13:13:53;21.90;99.50
38458;DHT22;24239;48.058;10.486;2023-05-07T13:16:19;22.10;99.90
38458;DHT22;24239;48.058;10.486;2023-05-07T13:18:45;22.00;99.80
38458;DHT22;24239;48.058;10.486;2023-05-07T13:21:11;22.00;99.60
38458;DHT22;24239;48.058;10.486;2023-05-07T13:23:38;21.90;99.90
38458;DHT22;24239;48.058;10.486;2023-05-07T13:26:04;22.10;99.90
38458;DHT22;24239;48.058;10.486;2023-05-07T13:28:29;22.00;99.90
38458;DHT22;24239;48.058;10.486;2023-05-07T13:30:55;22.00;99.90
38458;DHT22;24239;48.058;10.486;2023-05-07T13:33:24;21.90;99.70
38458;DHT22;24239;48.058;10.486;2023-05-07T13:35:53;22.00;99.80
38458;DHT22;24239;48.058;10.486;2023-05-07T13:38:18;21.90;99.90
38458;DHT22;24239;48.058;10.486;2023-05-07T13:40:44;21.90;99.90
38458;DHT22;24239;48.058;10.486;2023-05-07T13:43:10;22.10;99.90
38458;DHT22;24239;48.058;10.486;2023-05-07T13:45:35;22.40;99.40
38458;DHT22;24239;48.058;10.486;2023-05-07T13:48:01;22.40;99.30
38458;DHT22;24239;48.058;10.486;2023-05-07T13:50:30;22.60;98.90
38458;DHT22;24239;48.058;10.486;2023-05-07T13:52:56;22.70;98.60
38458;DHT22;24239;48.058;10.486;2023-05-07T13:55:22;22.50;98.30
38458;DHT22;24239;48.058;10.486;2023-05-07T13:57:54;22.50;98.70
38458;DHT22;24239;48.058;10.486;2023-05-07T14:00:25;22.30;98.40
38458;DHT22;24239;48.058;10.486;2023-05-07T14:02:52;22.30;98.50
38458;DHT22;24239;48.058;10.486;2023-05-07T14:05:17;22.20;98.70
38458;DHT22;24239;48.058;10.486;2023-05-07T14:07:43;22.30;98.80
38458;DHT22;24239;48.058;10.486;2023-05-07T14:10:14;22.30;98.90
38458;DHT22;24239;48.058;10.486;2023-05-07T14:12:40;22.20;98.80
38458;DHT22;24239;48.058;10.486;2023-05-07T14:15:46;22.10;98.90
38458;DHT22;24239;48.058;10.486;2023-05-07T14:18:26;21.80;99.30
38458;DHT22;24239;48.058;10.486;2023-05-07T14:21:21;21.60;99.50
38458;DHT22;24239;48.058;10.486;2023-05-07T14:23:50;21.50;99.50
38458;DHT22;24239;48.058;10.486;2023-05-07T14:29:08;21.50;99.60
38458;DHT22;24239;48.058;10.486;2023-05-07T14:31:33;21.50;99.40
38458;DHT22;24239;48.058;10.486;2023-05-07T14:33:59;21.50;99.40
38458;DHT22;24239;48.058;10.486;2023-05-07T14:36:25;21.50;99.20
38458;DHT22;24239;48.058;10.486;2023-05-07T14:39:05;21.40;99.20
38458;DHT22;24239;48.058;10.486;2023-05-07T14:41:32;21.40;99.50
38458;DHT22;24239;48.058;10.486;2023-05-07T14:44:10;21.50;99.30
38458;DHT22;24239;48.058;10.486;2023-05-07T14:46:38;21.40;99.50
38458;DHT22;24239;48.058;10.486;2023-05-07T14:49:07;21.50;99.40
38458;DHT22;24239;48.058;10.486;2023-05-07T14:51:42;21.60;99.60
38458;DHT22;24239;48.058;10.486;2023-05-07T14:54:16;21.70;99.50
38458;DHT22;24239;48.058;10.486;2023-05-07T14:56:54;21.80;99.10
38458;DHT22;24239;48.058;10.486;2023-05-07T15:03:08;21.90;98.60
38458;DHT22;24239;48.058;10.486;2023-05-07T15:05:46;21.80;99.10
38458;DHT22;24239;48.058;10.486;2023-05-07T15:08:15;21.70;99.90
38458;DHT22;24239;48.058;10.486;2023-05-07T15:11:08;21.50;99.70
38458;DHT22;24239;48.058;10.486;2023-05-07T15:13:52;21.40;99.70
38458;DHT22;24239;48.058;10.486;2023-05-07T15:16:29;21.30;99.80
38458;DHT22;24239;48.058;10.486;2023-05-07T15:19:07;21.20;99.80
38458;DHT22;24239;48.058;10.486;2023-05-07T15:21:39;21.30;99.90
38458;DHT22;24239;48.058;10.486;2023-05-07T15:24:17;21.10;99.90
38458;DHT22;24239;48.058;10.486;2023-05-07T15:27:08;21.20;99.90
38458;DHT22;24239;48.058;10.486;2023-05-07T15:29:40;21.20;99.90
38458;DHT22;24239;48.058;10.486;2023-05-07T15:32:21;21.30;99.90
38458;DHT22;24239;48.058;10.486;2023-05-07T15:34:47;21.30;99.90
38458;DHT22;24239;48.058;10.486;2023-05-07T15:37:44;21.20;99.90
38458;DHT22;24239;48.058;10.486;2023-05-07T15:40:29;21.30;99.90